createdAt,value
2022-12-09T00:00:42.227Z,1.60
2022-12-09T00:03:09.578Z,1.30
2022-12-09T00:05:40.158Z,1.48
2022-12-09T00:08:07.464Z,1.65
2022-12-09T00:10:34.744Z,1.60
2022-12-09T00:13:01.901Z,1.60
2022-12-09T00:15:29.133Z,1.10
2022-12-09T00:17:56.323Z,1.50
2022-12-09T00:20:23.695Z,1.20
2022-12-09T00:22:50.771Z,1.60
2022-12-09T00:25:17.899Z,1.17
2022-12-09T00:27:45.019Z,1.35
2022-12-09T00:30:12.534Z,1.77
2022-12-09T00:32:40.508Z,1.58
2022-12-09T00:35:08.210Z,1.27
2022-12-09T00:37:35.603Z,1.20
2022-12-09T00:40:02.782Z,1.42
2022-12-09T00:42:30.304Z,1.58
2022-12-09T00:44:57.737Z,1.50
2022-12-09T00:47:25.196Z,1.38
2022-12-09T00:49:52.353Z,1.50
2022-12-09T00:52:19.657Z,1.35
2022-12-09T00:54:46.841Z,1.40
2022-12-09T00:57:14.252Z,1.48
2022-12-09T00:59:41.447Z,1.20
2022-12-09T01:02:08.597Z,1.45
2022-12-09T01:04:35.920Z,1.33
2022-12-09T01:07:03.100Z,1.20
2022-12-09T01:09:30.334Z,1.40
2022-12-09T01:11:57.714Z,1.50
2022-12-09T01:14:24.869Z,1.23
2022-12-09T01:16:52.051Z,1.20
2022-12-09T01:19:19.294Z,1.20
2022-12-09T01:21:46.768Z,1.42
2022-12-09T01:24:14.716Z,1.30
2022-12-09T01:26:42.198Z,1.45
2022-12-09T01:29:09.782Z,1.35
2022-12-09T01:31:37.415Z,1.42
2022-12-09T01:34:04.688Z,1.30
2022-12-09T01:36:32.104Z,0.98
2022-12-09T01:39:00.071Z,1.20
2022-12-09T01:41:27.998Z,1.20
2022-12-09T01:44:11.830Z,1.27
2022-12-09T01:46:39.271Z,1.17
2022-12-09T01:49:07.591Z,1.23
2022-12-09T01:51:34.820Z,1.00
2022-12-09T01:54:02.554Z,1.55
2022-12-09T01:56:31.473Z,1.35
2022-12-09T01:59:00.638Z,1.27
2022-12-09T02:01:28.204Z,1.20
2022-12-09T02:03:55.888Z,1.83
2022-12-09T02:06:23.375Z,1.40
2022-12-09T02:08:51.517Z,1.20
2022-12-09T02:11:37.546Z,1.35
2022-12-09T02:14:19.533Z,1.35
2022-12-09T02:16:52.723Z,1.40
2022-12-09T02:19:26.334Z,1.20
2022-12-09T02:21:58.953Z,1.40
2022-12-09T02:24:34.856Z,1.40
2022-12-09T02:27:08.962Z,1.30
2022-12-09T02:29:48.407Z,1.10
2022-12-09T02:32:15.689Z,1.23
2022-12-09T02:34:46.711Z,1.40
2022-12-09T02:37:49.276Z,1.00
2022-12-09T02:40:21.871Z,1.48
2022-12-09T02:42:50.777Z,1.40
2022-12-09T02:45:19.615Z,1.30
2022-12-09T02:47:51.226Z,1.23
2022-12-09T02:50:21.189Z,1.48
2022-12-09T02:52:49.137Z,1.42
2022-12-09T02:55:17.752Z,1.40
2022-12-09T02:57:45.163Z,1.38
2022-12-09T03:00:14.429Z,1.33
2022-12-09T03:02:45.024Z,1.35
2022-12-09T03:05:30.912Z,1.50
2022-12-09T03:08:01.187Z,1.15
2022-12-09T03:10:30.463Z,1.40
2022-12-09T03:13:01.989Z,1.38
2022-12-09T03:15:30.651Z,1.55
2022-12-09T03:17:59.276Z,1.30
2022-12-09T03:20:28.859Z,1.55
2022-12-09T03:23:00.143Z,1.38
2022-12-09T03:25:33.758Z,1.50
2022-12-09T03:28:18.311Z,1.50
2022-12-09T03:30:46.246Z,1.48
2022-12-09T03:33:15.342Z,1.27
2022-12-09T03:35:43.994Z,1.25
2022-12-09T03:38:14.003Z,1.38
2022-12-09T03:40:41.996Z,1.45
2022-12-09T03:43:14.745Z,1.35
2022-12-09T03:45:42.608Z,1.35
2022-12-09T03:48:10.346Z,1.38
2022-12-09T03:51:04.137Z,1.75
2022-12-09T03:53:37.336Z,1.45
2022-12-09T03:56:10.961Z,1.35
2022-12-09T03:58:39.865Z,1.27
2022-12-09T04:01:07.907Z,1.40
2022-12-09T04:03:35.769Z,1.63
2022-12-09T04:06:03.296Z,1.30
2022-12-09T04:08:31.046Z,1.52
2022-12-09T04:10:58.528Z,1.30
2022-12-09T04:13:25.670Z,1.45
2022-12-09T04:15:52.955Z,1.58
2022-12-09T04:18:20.179Z,1.40
2022-12-09T04:20:47.701Z,1.60
2022-12-09T04:23:14.851Z,1.30
2022-12-09T04:25:42.259Z,1.40
2022-12-09T04:28:09.660Z,1.63
2022-12-09T04:30:36.856Z,1.73
2022-12-09T04:33:04.087Z,1.27
2022-12-09T04:35:31.220Z,1.40
2022-12-09T04:37:58.348Z,1.63
2022-12-09T04:40:25.937Z,1.33
2022-12-09T04:42:53.529Z,1.40
2022-12-09T04:45:20.709Z,1.80
2022-12-09T04:47:47.970Z,1.55
2022-12-09T04:50:15.393Z,1.58
2022-12-09T04:52:43.028Z,1.80
2022-12-09T04:55:10.557Z,1.58
2022-12-09T04:57:37.697Z,1.70
2022-12-09T05:00:06.519Z,1.50
2022-12-09T05:02:34.867Z,1.25
2022-12-09T05:05:02.622Z,1.67
2022-12-09T05:07:33.869Z,1.60
2022-12-09T05:10:01.640Z,1.45
2022-12-09T05:12:29.656Z,1.70
2022-12-09T05:14:56.894Z,1.40
2022-12-09T05:17:24.704Z,1.58
2022-12-09T05:19:52.661Z,1.42
2022-12-09T05:22:20.171Z,1.60
2022-12-09T05:24:47.562Z,1.55
2022-12-09T05:27:15.540Z,1.50
2022-12-09T05:29:43.086Z,1.70
2022-12-09T05:32:10.607Z,1.58
2022-12-09T05:34:38.179Z,1.67
2022-12-09T05:37:05.402Z,1.48
2022-12-09T05:39:32.757Z,1.70
2022-12-09T05:41:59.982Z,1.58
2022-12-09T05:44:27.377Z,1.70
2022-12-09T05:46:54.880Z,1.50
2022-12-09T05:49:22.212Z,1.23
2022-12-09T05:51:49.663Z,1.88
2022-12-09T05:54:16.789Z,1.48
2022-12-09T05:56:48.284Z,1.85
2022-12-09T05:59:16.340Z,1.65
2022-12-09T06:01:44.024Z,2.00
2022-12-09T06:04:11.433Z,1.85
2022-12-09T06:06:39.134Z,1.73
2022-12-09T06:09:11.572Z,1.95
2022-12-09T06:11:40.284Z,1.60
2022-12-09T06:14:08.920Z,1.60
2022-12-09T06:16:36.648Z,1.85
2022-12-09T06:19:05.026Z,1.75
2022-12-09T06:21:32.318Z,1.90
2022-12-09T06:23:59.965Z,1.67
2022-12-09T06:26:28.460Z,1.80
2022-12-09T06:28:56.766Z,2.03
2022-12-09T06:31:24.920Z,1.40
2022-12-09T06:33:55.783Z,1.80
2022-12-09T06:36:26.541Z,1.85
2022-12-09T06:38:55.311Z,1.80
2022-12-09T06:41:22.586Z,2.00
2022-12-09T06:43:50.160Z,2.00
2022-12-09T06:46:19.538Z,1.70
2022-12-09T06:48:47.313Z,2.00
2022-12-09T06:51:15.046Z,2.03
2022-12-09T06:53:42.427Z,1.92
2022-12-09T06:56:12.681Z,1.75
2022-12-09T06:58:41.308Z,1.60
2022-12-09T07:01:13.670Z,2.72
2022-12-09T07:03:42.747Z,2.13
2022-12-09T07:06:20.304Z,1.95
2022-12-09T07:08:47.801Z,1.80
2022-12-09T07:11:15.448Z,2.03
2022-12-09T07:13:43.070Z,1.80
2022-12-09T07:16:10.443Z,1.85
2022-12-09T07:18:38.128Z,1.98
2022-12-09T07:21:12.630Z,1.77
2022-12-09T07:23:40.163Z,1.90
2022-12-09T07:26:07.560Z,2.10
2022-12-09T07:28:35.898Z,2.22
2022-12-09T07:31:03.754Z,2.00
2022-12-09T07:33:31.871Z,1.85
2022-12-09T07:36:00.128Z,2.10
2022-12-09T07:38:27.971Z,1.73
2022-12-09T07:40:55.493Z,1.83
2022-12-09T07:43:23.118Z,2.08
2022-12-09T07:45:50.893Z,1.77
2022-12-09T07:48:18.134Z,2.35
2022-12-09T07:50:46.111Z,1.65
2022-12-09T07:53:13.585Z,2.25
2022-12-09T07:55:40.773Z,2.00
2022-12-09T07:58:07.882Z,1.90
2022-12-09T08:00:35.324Z,1.73
2022-12-09T08:03:02.580Z,1.98
2022-12-09T08:05:30.215Z,1.90
2022-12-09T08:07:57.859Z,2.10
2022-12-09T08:10:25.408Z,1.65
2022-12-09T08:12:53.006Z,2.03
2022-12-09T08:15:20.289Z,1.92
2022-12-09T08:17:47.980Z,1.77
2022-12-09T08:20:15.895Z,1.88
2022-12-09T08:22:44.156Z,1.58
2022-12-09T08:25:11.585Z,1.98
2022-12-09T08:27:39.048Z,1.90
2022-12-09T08:30:07.446Z,1.98
2022-12-09T08:32:35.172Z,1.80
2022-12-09T08:35:02.853Z,1.83
2022-12-09T08:37:30.435Z,1.75
2022-12-09T08:39:57.841Z,1.83
2022-12-09T08:42:25.080Z,1.52
2022-12-09T08:44:57.092Z,1.77
2022-12-09T08:47:29.412Z,2.00
2022-12-09T08:49:57.363Z,1.60
2022-12-09T08:52:25.573Z,1.80
2022-12-09T08:54:53.037Z,1.75
2022-12-09T08:57:24.365Z,2.22
2022-12-09T08:59:51.859Z,1.92
2022-12-09T09:02:19.317Z,1.95
2022-12-09T09:04:47.486Z,2.20
2022-12-09T09:07:15.035Z,1.90
2022-12-09T09:09:42.408Z,1.90
2022-12-09T09:12:10.289Z,1.63
2022-12-09T09:14:37.684Z,1.92
2022-12-09T09:17:05.246Z,2.05
2022-12-09T09:19:32.683Z,2.13
2022-12-09T09:22:01.451Z,1.83
2022-12-09T09:24:28.873Z,2.22
2022-12-09T09:26:56.775Z,2.03
2022-12-09T09:29:24.967Z,1.60
2022-12-09T09:31:56.228Z,2.05
2022-12-09T09:34:24.930Z,1.98
2022-12-09T09:36:52.706Z,2.30
2022-12-09T09:39:20.336Z,2.03
2022-12-09T09:41:53.925Z,2.25
2022-12-09T09:44:27.303Z,2.30
2022-12-09T09:46:55.599Z,2.13
2022-12-09T09:49:29.866Z,1.90
2022-12-09T09:51:57.745Z,2.00
2022-12-09T09:54:25.024Z,2.20
2022-12-09T09:56:56.677Z,2.20
2022-12-09T09:59:23.992Z,1.90
2022-12-09T10:02:00.471Z,1.75
2022-12-09T10:04:48.095Z,2.30
2022-12-09T10:07:34.490Z,2.10
2022-12-09T10:10:08.825Z,2.13
2022-12-09T10:12:44.421Z,1.88
2022-12-09T10:15:12.491Z,2.13
2022-12-09T10:17:47.086Z,1.80
2022-12-09T10:22:45.769Z,2.42
2022-12-09T10:25:22.049Z,2.22
2022-12-09T10:27:52.605Z,2.47
2022-12-09T10:30:20.744Z,1.92
2022-12-09T10:32:48.417Z,2.33
2022-12-09T10:35:20.809Z,1.90
2022-12-09T10:37:49.980Z,2.35
2022-12-09T10:43:05.862Z,2.17
2022-12-09T10:46:00.104Z,2.33
2022-12-09T10:48:33.438Z,2.00
2022-12-09T10:51:06.289Z,2.15
2022-12-09T10:53:34.746Z,2.10
2022-12-09T10:56:03.321Z,2.22
2022-12-09T10:58:31.791Z,2.30
2022-12-09T11:01:04.495Z,2.35
2022-12-09T11:03:34.411Z,2.40
2022-12-09T11:06:04.451Z,2.25
2022-12-09T11:08:32.440Z,2.42
2022-12-09T11:11:01.121Z,2.47
2022-12-09T11:13:34.442Z,2.47
2022-12-09T11:16:05.149Z,2.53
2022-12-09T11:18:37.315Z,1.98
2022-12-09T11:21:07.188Z,2.13
2022-12-09T11:23:36.036Z,2.47
2022-12-09T11:28:36.847Z,2.35
2022-12-09T11:31:29.035Z,2.30
2022-12-09T11:34:00.354Z,2.10
2022-12-09T11:36:36.866Z,2.55
2022-12-09T11:39:35.161Z,3.03
2022-12-09T11:42:16.936Z,2.30
2022-12-09T11:44:56.745Z,2.72
2022-12-09T11:47:57.224Z,2.50
2022-12-09T11:50:31.220Z,2.55
2022-12-09T11:53:13.922Z,2.35
2022-12-09T11:55:49.028Z,2.70
2022-12-09T12:00:50.877Z,2.38
2022-12-09T12:03:26.681Z,2.42
2022-12-09T12:05:55.253Z,2.50
2022-12-09T12:08:25.610Z,2.75
2022-12-09T12:10:55.394Z,2.75
2022-12-09T12:13:34.689Z,2.80
2022-12-09T12:16:13.895Z,2.55
2022-12-09T12:18:46.900Z,2.88
2022-12-09T12:21:13.989Z,2.42
2022-12-09T12:23:59.882Z,2.72
2022-12-09T12:26:29.561Z,2.80
2022-12-09T12:29:00.160Z,2.92
2022-12-09T12:31:29.688Z,2.50
2022-12-09T12:36:56.388Z,2.30
2022-12-09T12:39:36.047Z,2.85
2022-12-09T12:42:03.090Z,2.60
2022-12-09T12:45:03.587Z,2.60
2022-12-09T12:47:36.724Z,2.50
2022-12-09T12:50:04.461Z,3.00
2022-12-09T12:52:57.015Z,2.78
2022-12-09T12:55:43.214Z,2.42
2022-12-09T12:58:16.395Z,2.42
2022-12-09T13:00:49.628Z,2.08
2022-12-09T13:03:19.918Z,2.40
2022-12-09T13:05:50.305Z,3.10
2022-12-09T13:08:27.271Z,3.33
2022-12-09T13:10:55.968Z,4.10
2022-12-09T13:13:30.193Z,4.22
2022-12-09T13:16:00.346Z,4.15
2022-12-09T13:18:32.753Z,4.00
2022-12-09T13:21:01.037Z,3.83
2022-12-09T13:23:46.396Z,3.95
2022-12-09T13:26:26.239Z,3.60
2022-12-09T13:28:53.496Z,4.18
2022-12-09T13:31:23.067Z,3.83
2022-12-09T13:33:57.686Z,4.15
2022-12-09T13:36:38.855Z,4.30
2022-12-09T13:39:05.984Z,4.00
2022-12-09T13:41:56.112Z,4.25
2022-12-09T13:44:25.670Z,3.92
2022-12-09T13:46:52.854Z,3.80
2022-12-09T13:49:26.701Z,4.22
2022-12-09T13:51:55.571Z,3.70
2022-12-09T13:54:23.660Z,3.90
2022-12-09T13:57:09.261Z,3.67
2022-12-09T13:59:48.395Z,3.35
2022-12-09T14:02:21.491Z,3.63
2022-12-09T14:05:09.034Z,2.97
2022-12-09T14:07:41.757Z,3.40
2022-12-09T14:10:28.981Z,3.35
2022-12-09T14:12:56.052Z,3.50
2022-12-09T14:15:25.991Z,3.38
2022-12-09T14:17:53.101Z,3.25
2022-12-09T14:20:28.750Z,3.13
2022-12-09T14:23:01.761Z,3.25
2022-12-09T14:25:29.251Z,3.15
2022-12-09T14:28:24.363Z,2.60
2022-12-09T14:30:51.663Z,3.20
2022-12-09T14:33:34.926Z,3.30
2022-12-09T14:36:05.546Z,3.03
2022-12-09T14:38:32.606Z,2.75
2022-12-09T14:41:06.014Z,2.80
2022-12-09T14:43:52.006Z,2.90
2022-12-09T14:46:25.025Z,2.88
2022-12-09T14:48:54.564Z,3.05
2022-12-09T14:51:27.286Z,2.97
2022-12-09T14:53:59.503Z,3.13
2022-12-09T14:56:27.876Z,3.00
2022-12-09T14:59:01.427Z,3.33
2022-12-09T15:01:28.548Z,3.30
2022-12-09T15:03:57.274Z,2.88
2022-12-09T15:06:26.854Z,2.78
2022-12-09T15:08:55.196Z,3.08
2022-12-09T15:11:24.131Z,3.10
2022-12-09T15:16:23.177Z,2.97
2022-12-09T15:18:53.645Z,3.17
2022-12-09T15:21:31.574Z,2.65
2022-12-09T15:23:59.732Z,2.63
2022-12-09T15:26:28.459Z,2.50
2022-12-09T15:28:56.593Z,3.25
2022-12-09T15:31:25.115Z,3.00
2022-12-09T15:33:53.150Z,2.58
2022-12-09T15:36:39.087Z,2.97
2022-12-09T15:39:32.700Z,2.90
2022-12-09T15:42:07.558Z,2.78
2022-12-09T15:44:34.671Z,2.95
2022-12-09T15:47:06.920Z,2.90
2022-12-09T15:49:41.179Z,2.55
2022-12-09T15:52:08.455Z,2.88
2022-12-09T15:54:38.579Z,2.90
2022-12-09T15:57:08.418Z,2.97
2022-12-09T15:59:43.439Z,2.80
2022-12-09T16:02:12.254Z,3.30
2022-12-09T16:04:42.874Z,2.90
2022-12-09T16:07:13.034Z,2.95
2022-12-09T16:09:40.334Z,2.83
2022-12-09T16:12:26.146Z,3.08
2022-12-09T16:14:53.250Z,2.72
2022-12-09T16:17:22.385Z,3.28
2022-12-09T16:19:49.556Z,3.22
2022-12-09T16:22:16.633Z,2.95
2022-12-09T16:25:12.974Z,3.22
2022-12-09T16:27:37.044Z,10.63
2022-12-09T16:30:13.420Z,17.90
2022-12-09T16:32:47.618Z,23.98
2022-12-09T16:35:17.497Z,24.48
2022-12-09T16:37:56.525Z,28.20
2022-12-09T16:40:23.683Z,30.52
2022-12-09T16:42:52.139Z,28.77
2022-12-09T16:45:22.501Z,33.28
2022-12-09T16:47:56.469Z,29.63
2022-12-09T16:50:37.133Z,29.70
2022-12-09T16:53:05.602Z,27.48
2022-12-09T16:55:33.543Z,27.50
2022-12-09T16:58:00.725Z,26.10
2022-12-09T17:00:27.992Z,24.58
2022-12-09T17:03:01.625Z,24.35
2022-12-09T17:05:29.049Z,22.35
2022-12-09T17:07:56.303Z,22.50
2022-12-09T17:10:23.653Z,20.70
2022-12-09T17:12:50.795Z,18.17
2022-12-09T17:15:19.505Z,19.73
2022-12-09T17:20:16.263Z,15.80
2022-12-09T17:22:43.425Z,16.23
2022-12-09T17:25:10.591Z,14.88
2022-12-09T17:27:38.198Z,14.52
2022-12-09T17:30:05.537Z,16.10
2022-12-09T17:32:32.734Z,14.30
2022-12-09T17:34:59.865Z,14.05
2022-12-09T17:37:27.043Z,13.23
2022-12-09T17:40:01.554Z,13.27
2022-12-09T17:42:30.474Z,12.30
2022-12-09T17:44:57.893Z,12.10
2022-12-09T17:47:25.225Z,12.95
2022-12-09T17:49:52.487Z,11.73
2022-12-09T17:52:19.598Z,11.85
2022-12-09T17:54:47.535Z,12.35
2022-12-09T17:57:14.704Z,9.18
2022-12-09T17:59:42.012Z,10.30
2022-12-09T18:02:10.810Z,9.63
2022-12-09T18:04:38.121Z,9.77
2022-12-09T18:07:05.277Z,9.23
2022-12-09T18:09:32.459Z,9.30
2022-12-09T18:11:59.623Z,9.02
2022-12-09T18:14:26.830Z,9.02
2022-12-09T18:16:54.207Z,7.97
2022-12-09T18:19:23.367Z,7.90
2022-12-09T18:21:50.584Z,8.38
2022-12-09T18:24:18.619Z,7.72
2022-12-09T18:26:45.744Z,8.45
2022-12-09T18:29:13.593Z,8.18
2022-12-09T18:31:41.449Z,7.88
2022-12-09T18:34:08.559Z,8.32
2022-12-09T18:36:35.823Z,8.50
2022-12-09T18:39:02.918Z,7.57
2022-12-09T18:41:30.942Z,7.18
2022-12-09T18:43:59.093Z,6.70
2022-12-09T18:46:27.339Z,6.13
2022-12-09T18:49:05.950Z,7.03
2022-12-09T18:51:33.181Z,7.03
2022-12-09T18:54:01.178Z,5.88
2022-12-09T18:56:28.847Z,5.70
2022-12-09T18:59:12.065Z,5.25
2022-12-09T19:01:41.093Z,5.30
2022-12-09T19:04:12.587Z,5.82
2022-12-09T19:06:40.622Z,5.35
2022-12-09T19:09:09.098Z,5.43
2022-12-09T19:11:37.336Z,5.25
2022-12-09T19:14:05.168Z,5.55
2022-12-09T19:16:32.335Z,5.15
2022-12-09T19:19:05.410Z,5.57
2022-12-09T19:21:36.221Z,5.90
2022-12-09T19:24:03.524Z,5.15
2022-12-09T19:26:31.810Z,5.45
2022-12-09T19:29:00.172Z,5.38
2022-12-09T19:31:27.261Z,5.95
2022-12-09T19:33:55.831Z,5.32
2022-12-09T19:36:23.631Z,5.32
2022-12-09T19:38:51.070Z,5.03
2022-12-09T19:41:18.341Z,5.25
2022-12-09T19:43:45.814Z,5.43
2022-12-09T19:46:13.842Z,5.13
2022-12-09T19:48:44.803Z,5.25
2022-12-09T19:51:13.208Z,5.28
2022-12-09T19:53:40.531Z,5.63
2022-12-09T19:56:15.882Z,5.88
2022-12-09T19:58:43.939Z,5.65
2022-12-09T20:01:12.285Z,5.25
2022-12-09T20:03:40.559Z,4.70
2022-12-09T20:06:09.252Z,4.72
2022-12-09T20:08:36.846Z,4.82
2022-12-09T20:11:04.759Z,5.20
2022-12-09T20:13:32.473Z,4.88
2022-12-09T20:16:03.575Z,4.63
2022-12-09T20:18:30.731Z,5.55
2022-12-09T20:21:00.935Z,5.18
2022-12-09T20:23:28.320Z,5.10
2022-12-09T20:25:55.512Z,5.28
2022-12-09T20:28:22.605Z,5.13
2022-12-09T20:30:51.317Z,4.50
2022-12-09T20:33:18.377Z,4.70
2022-12-09T20:35:45.486Z,4.85
2022-12-09T20:38:12.575Z,5.18
2022-12-09T20:40:40.882Z,4.47
2022-12-09T20:43:08.201Z,4.82
2022-12-09T20:45:38.706Z,4.50
2022-12-09T20:48:06.034Z,5.10
2022-12-09T20:50:38.357Z,5.40
2022-12-09T20:53:05.768Z,5.07
2022-12-09T20:55:32.876Z,5.40
2022-12-09T20:58:00.036Z,4.30
2022-12-09T21:00:27.230Z,4.88
2022-12-09T21:02:54.290Z,4.47
2022-12-09T21:05:21.362Z,4.35
2022-12-09T21:07:48.557Z,5.05
2022-12-09T21:10:15.707Z,4.65
2022-12-09T21:12:42.799Z,4.43
2022-12-09T21:15:10.937Z,4.70
2022-12-09T21:17:38.108Z,5.35
2022-12-09T21:20:05.606Z,4.93
2022-12-09T21:22:34.062Z,4.53
2022-12-09T21:25:01.262Z,4.88
2022-12-09T21:27:28.357Z,4.45
2022-12-09T21:29:55.475Z,3.92
2022-12-09T21:32:22.577Z,4.32
2022-12-09T21:34:49.685Z,4.47
2022-12-09T21:37:16.828Z,4.43
2022-12-09T21:39:43.902Z,4.45
2022-12-09T21:42:11.116Z,4.60
2022-12-09T21:44:38.420Z,4.07
2022-12-09T21:47:05.554Z,4.55
2022-12-09T21:49:33.454Z,4.80
2022-12-09T21:52:00.669Z,4.30
2022-12-09T21:54:27.792Z,3.70
2022-12-09T21:56:55.041Z,4.18
2022-12-09T21:59:22.287Z,4.63
2022-12-09T22:01:49.434Z,4.72
2022-12-09T22:04:17.508Z,4.07
2022-12-09T22:06:48.805Z,4.15
2022-12-09T22:09:17.342Z,3.90
2022-12-09T22:11:44.979Z,4.40
2022-12-09T22:14:12.271Z,4.95
2022-12-09T22:16:41.388Z,5.05
2022-12-09T22:19:09.367Z,4.38
2022-12-09T22:21:36.907Z,4.63
2022-12-09T22:24:05.842Z,4.72
2022-12-09T22:29:01.237Z,4.57
2022-12-09T22:31:30.492Z,3.97
2022-12-09T22:33:59.866Z,4.65
2022-12-09T22:36:27.405Z,4.40
2022-12-09T22:38:54.799Z,4.82
2022-12-09T22:41:22.929Z,4.55
2022-12-09T22:43:50.781Z,4.50
2022-12-09T22:46:22.246Z,4.15
2022-12-09T22:48:49.954Z,4.20
2022-12-09T22:51:18.338Z,4.35
2022-12-09T22:53:45.582Z,4.07
2022-12-09T22:56:12.790Z,4.18
2022-12-09T22:58:40.591Z,4.05
2022-12-09T23:01:11.641Z,4.05
2022-12-09T23:03:38.910Z,4.25
2022-12-09T23:06:06.469Z,4.28
2022-12-09T23:08:33.851Z,4.55
2022-12-09T23:11:03.083Z,3.72
2022-12-09T23:13:30.488Z,4.82
2022-12-09T23:16:00.959Z,4.07
2022-12-09T23:18:28.737Z,4.22
2022-12-09T23:20:56.005Z,4.03
2022-12-09T23:23:23.113Z,4.40
2022-12-09T23:25:50.371Z,4.38
2022-12-09T23:28:17.721Z,4.63
2022-12-09T23:30:45.079Z,4.47
2022-12-09T23:33:12.359Z,4.47
2022-12-09T23:35:39.527Z,4.50
2022-12-09T23:38:06.627Z,4.00
2022-12-09T23:40:33.756Z,4.10
2022-12-09T23:43:00.894Z,4.05
2022-12-09T23:45:28.010Z,4.10
2022-12-09T23:47:55.300Z,4.05
2022-12-09T23:50:22.376Z,3.95
2022-12-09T23:52:49.469Z,3.92
2022-12-09T23:55:16.591Z,3.58
2022-12-09T23:57:43.688Z,4.43
